createdAt,value
2018-08-04T00:02:13.153Z,7.50
2018-08-04T00:07:16.637Z,6.90
2018-08-04T00:12:20.198Z,8.50
2018-08-04T00:17:22.858Z,7.23
2018-08-04T00:22:26.104Z,7.10
2018-08-04T00:27:28.663Z,8.17
2018-08-04T00:32:31.261Z,7.30
2018-08-04T00:37:33.846Z,8.50
2018-08-04T00:42:36.379Z,8.10
2018-08-04T00:47:39.850Z,7.13
2018-08-04T00:52:42.463Z,8.60
2018-08-04T00:57:45.132Z,8.40
2018-08-04T01:02:47.773Z,6.90
2018-08-04T01:07:51.166Z,7.90
2018-08-04T01:12:53.734Z,8.10
2018-08-04T01:17:56.269Z,7.13
2018-08-04T01:22:58.827Z,7.53
2018-08-04T01:28:01.524Z,7.90
2018-08-04T01:33:04.023Z,8.57
2018-08-04T01:38:06.573Z,7.57
2018-08-04T01:43:09.171Z,9.23
2018-08-04T01:48:11.715Z,8.37
2018-08-04T01:53:14.245Z,8.47
2018-08-04T01:58:16.775Z,8.40
2018-08-04T02:03:19.290Z,7.50
2018-08-04T02:08:21.868Z,7.47
2018-08-04T02:13:25.146Z,7.33
2018-08-04T02:18:28.657Z,7.30
2018-08-04T02:23:31.292Z,8.30
2018-08-04T02:28:33.861Z,8.00
2018-08-04T02:33:36.535Z,7.20
2018-08-04T02:38:40.113Z,7.57
2018-08-04T02:43:42.631Z,7.90
2018-08-04T02:48:45.179Z,8.07
2018-08-04T02:53:48.392Z,8.43
2018-08-04T02:58:51.761Z,7.17
2018-08-04T03:03:54.362Z,7.60
2018-08-04T03:08:56.921Z,7.53
2018-08-04T03:13:59.572Z,9.07
2018-08-04T03:19:02.896Z,8.80
2018-08-04T03:24:05.605Z,6.60
2018-08-04T03:29:08.246Z,7.90
2018-08-04T03:34:10.818Z,7.60
2018-08-04T03:39:14.151Z,9.03
2018-08-04T03:44:16.868Z,9.37
2018-08-04T03:49:19.587Z,8.73
2018-08-04T03:54:22.139Z,8.37
2018-08-04T03:59:25.481Z,8.70
2018-08-04T04:04:28.091Z,8.90
2018-08-04T04:09:30.756Z,9.00
2018-08-04T04:14:33.358Z,8.37
2018-08-04T04:19:35.913Z,9.10
2018-08-04T04:24:39.102Z,9.37
2018-08-04T04:29:41.694Z,8.70
2018-08-04T04:34:44.302Z,8.90
2018-08-04T04:39:46.818Z,11.20
2018-08-04T04:44:49.401Z,10.53
2018-08-04T04:49:51.986Z,10.00
2018-08-04T04:54:54.535Z,10.20
2018-08-04T04:59:57.081Z,9.40
2018-08-04T05:04:59.611Z,9.90
2018-08-04T05:10:02.207Z,9.00
2018-08-04T05:15:04.798Z,8.80
2018-08-04T05:20:07.317Z,8.37
2018-08-04T05:25:09.897Z,10.10
2018-08-04T05:30:12.662Z,8.53
2018-08-04T05:35:16.005Z,11.00
2018-08-04T05:40:18.609Z,9.27
2018-08-04T05:45:21.171Z,10.27
2018-08-04T05:50:23.693Z,10.03
2018-08-04T05:55:26.230Z,10.40
2018-08-04T06:00:28.787Z,9.90
2018-08-04T06:05:31.826Z,10.67
2018-08-04T06:10:34.696Z,10.27
2018-08-04T06:15:37.502Z,10.50
2018-08-04T06:20:40.326Z,10.73
2018-08-04T06:25:43.143Z,10.40
2018-08-04T06:30:45.724Z,10.30
2018-08-04T06:35:48.380Z,9.60
2018-08-04T06:40:51.845Z,10.53
2018-08-04T06:45:54.435Z,10.67
2018-08-04T06:50:57.032Z,9.83
2018-08-04T06:55:59.566Z,10.53
2018-08-04T07:01:02.249Z,10.10
2018-08-04T07:06:04.844Z,9.80
2018-08-04T07:11:08.240Z,10.87
2018-08-04T07:16:10.765Z,10.23
2018-08-04T07:21:13.465Z,9.23
2018-08-04T07:26:16.746Z,9.40
2018-08-04T07:36:34.644Z,11.70
2018-08-04T07:41:37.441Z,9.60
2018-08-04T07:46:40.076Z,9.87
2018-08-04T07:51:42.747Z,10.77
2018-08-04T07:56:46.009Z,8.30
2018-08-04T08:01:50.859Z,7.60
2018-08-04T08:06:54.619Z,8.57
2018-08-04T08:11:58.229Z,9.50
2018-08-04T08:17:01.390Z,8.90
2018-08-04T08:22:05.388Z,8.80
2018-08-04T08:27:08.026Z,8.73
2018-08-04T08:32:11.495Z,8.70
2018-08-04T08:37:15.139Z,9.07
2018-08-04T08:42:17.804Z,8.63
2018-08-04T08:47:21.105Z,8.90
2018-08-04T08:52:23.584Z,7.73
2018-08-04T08:57:27.106Z,8.03
2018-08-04T09:02:29.949Z,8.57
2018-08-04T09:07:32.785Z,8.87
2018-08-04T09:12:35.524Z,7.50
2018-08-04T09:17:39.109Z,7.80
2018-08-04T09:27:52.270Z,6.97
2018-08-04T09:32:55.361Z,8.37
2018-08-04T09:37:58.359Z,9.00
2018-08-04T09:43:01.798Z,7.73
2018-08-04T09:48:04.600Z,7.00
2018-08-04T09:53:08.011Z,7.97
2018-08-04T09:58:10.666Z,7.60
2018-08-04T10:03:13.450Z,7.73
2018-08-04T10:08:17.906Z,6.80
2018-08-04T10:13:21.397Z,7.80
2018-08-04T10:18:24.219Z,6.93
2018-08-04T10:23:27.633Z,6.30
2018-08-04T10:28:30.978Z,6.27
2018-08-04T10:33:33.606Z,6.33
2018-08-04T10:38:36.382Z,6.87
2018-08-04T10:43:38.808Z,7.23
2018-08-04T10:48:41.300Z,6.03
2018-08-04T10:53:43.785Z,7.30
2018-08-04T10:58:47.036Z,6.50
2018-08-04T11:03:49.579Z,6.60
2018-08-04T11:08:52.029Z,6.80
2018-08-04T11:13:54.512Z,6.40
2018-08-04T11:18:57.209Z,6.17
2018-08-04T11:24:00.731Z,7.20
2018-08-04T11:29:03.326Z,6.70
2018-08-04T11:34:06.021Z,8.50
2018-08-04T11:39:09.000Z,8.50
2018-08-04T11:44:11.637Z,6.67
2018-08-04T11:49:14.233Z,6.97
2018-08-04T11:54:17.801Z,7.10
2018-08-04T11:59:20.639Z,7.10
2018-08-04T12:04:24.110Z,6.40
2018-08-04T12:09:28.581Z,7.20
2018-08-04T12:14:31.387Z,7.50
2018-08-04T12:19:34.153Z,8.20
2018-08-04T12:24:36.801Z,7.77
2018-08-04T12:29:39.719Z,7.00
2018-08-04T12:34:42.517Z,8.50
2018-08-04T12:39:45.363Z,8.00
2018-08-04T12:44:48.071Z,8.17
2018-08-04T12:49:50.681Z,6.67
2018-08-04T12:54:53.623Z,7.80
2018-08-04T12:59:56.255Z,7.13
2018-08-04T13:04:58.890Z,8.70
2018-08-04T13:10:02.574Z,7.80
2018-08-04T13:15:05.989Z,7.80
2018-08-04T13:20:08.595Z,8.37
2018-08-04T13:25:11.438Z,7.67
2018-08-04T13:30:13.929Z,7.13
2018-08-04T13:35:16.500Z,6.97
2018-08-04T13:40:18.983Z,7.30
2018-08-04T13:45:21.468Z,7.83
2018-08-04T13:50:23.979Z,7.40
2018-08-04T13:55:26.464Z,7.43
2018-08-04T14:00:28.957Z,7.57
2018-08-04T14:05:31.444Z,6.80
2018-08-04T14:10:33.928Z,6.50
2018-08-04T14:15:36.408Z,7.27
2018-08-04T14:20:38.966Z,7.73
2018-08-04T14:25:41.468Z,6.60
2018-08-04T14:30:43.963Z,6.63
2018-08-04T14:35:46.462Z,7.70
2018-08-04T14:40:48.971Z,8.80
2018-08-04T14:45:51.449Z,7.00
2018-08-04T14:50:53.935Z,7.70
2018-08-04T14:55:56.425Z,7.10
2018-08-04T15:00:58.909Z,7.70
2018-08-04T15:06:01.404Z,6.83
2018-08-04T15:11:03.896Z,7.10
2018-08-04T15:16:06.372Z,7.57
2018-08-04T15:21:08.872Z,7.30
2018-08-04T15:26:11.356Z,7.13
2018-08-04T15:31:13.844Z,7.77
2018-08-04T15:36:16.333Z,6.80
2018-08-04T15:41:18.822Z,7.40
2018-08-04T15:46:21.300Z,5.63
2018-08-04T15:51:23.784Z,6.50
2018-08-04T15:56:26.269Z,5.40
2018-08-04T16:01:28.748Z,5.90
2018-08-04T16:06:31.228Z,6.93
2018-08-04T16:11:33.709Z,4.93
2018-08-04T16:16:36.213Z,5.57
2018-08-04T16:21:38.668Z,5.93
2018-08-04T16:26:41.156Z,6.33
2018-08-04T16:31:43.652Z,6.10
2018-08-04T16:36:46.216Z,15.20
2018-08-04T16:41:48.739Z,13.87
2018-08-04T16:46:51.185Z,5.80
2018-08-04T16:51:53.660Z,5.40
2018-08-04T16:56:56.153Z,6.07
2018-08-04T17:01:58.632Z,6.87
2018-08-04T17:07:01.108Z,5.67
2018-08-04T17:12:03.604Z,6.00
2018-08-04T17:17:06.081Z,5.30
2018-08-04T17:22:08.676Z,5.10
2018-08-04T17:27:11.324Z,5.17
2018-08-04T17:32:14.275Z,5.17
2018-08-04T17:37:16.954Z,4.90
2018-08-04T17:42:19.472Z,6.03
2018-08-04T17:47:22.040Z,5.10
2018-08-04T17:52:25.016Z,6.03
2018-08-04T17:57:28.147Z,6.23
2018-08-04T18:02:31.478Z,6.57
2018-08-04T18:07:35.281Z,5.83
2018-08-04T18:12:37.807Z,6.50
2018-08-04T18:17:40.459Z,5.97
2018-08-04T18:22:42.942Z,6.37
2018-08-04T18:27:45.428Z,6.47
2018-08-04T18:32:47.943Z,6.47
2018-08-04T18:37:50.470Z,6.40
2018-08-04T18:42:53.389Z,6.37
2018-08-04T18:47:55.910Z,5.93
2018-08-04T18:52:58.631Z,6.53
2018-08-04T18:58:01.330Z,5.43
2018-08-04T19:03:03.922Z,5.20
2018-08-04T19:08:07.034Z,9.27
2018-08-04T19:13:10.230Z,6.40
2018-08-04T19:18:13.020Z,7.40
2018-08-04T19:23:17.033Z,7.83
2018-08-04T19:28:19.583Z,7.37
2018-08-04T19:33:22.336Z,8.83
2018-08-04T19:38:25.241Z,7.20
2018-08-04T19:43:29.392Z,5.73
2018-08-04T19:48:32.095Z,7.13
2018-08-04T19:53:34.640Z,11.80
2018-08-04T19:58:37.381Z,7.87
2018-08-04T20:03:40.158Z,7.87
2018-08-04T20:08:42.868Z,6.27
2018-08-04T20:13:45.697Z,7.07
2018-08-04T20:21:57.756Z,7.10
2018-08-04T20:27:01.289Z,7.13
2018-08-04T20:32:05.205Z,7.90
2018-08-04T20:37:08.862Z,6.37
2018-08-04T20:42:12.467Z,6.80
2018-08-04T20:47:15.999Z,7.60
2018-08-04T20:52:19.346Z,7.43
2018-08-04T20:57:22.923Z,7.87
2018-08-04T21:02:27.583Z,9.13
2018-08-04T21:07:31.253Z,8.93
2018-08-04T21:12:34.232Z,8.50
2018-08-04T21:17:38.297Z,8.23
2018-08-04T21:22:42.839Z,16.77
2018-08-04T21:27:49.154Z,10.10
2018-08-04T21:32:54.991Z,8.53
2018-08-04T21:38:03.353Z,7.80
2018-08-04T21:43:09.910Z,8.37
2018-08-04T21:48:13.832Z,9.20
2018-08-04T21:53:20.913Z,9.00
2018-08-04T21:58:28.620Z,9.00
2018-08-04T22:03:38.661Z,9.67
2018-08-04T22:08:56.141Z,9.47
2018-08-04T22:14:01.401Z,10.13
2018-08-04T22:19:07.855Z,9.20
2018-08-04T22:24:12.800Z,8.83
2018-08-04T22:29:19.877Z,8.50
2018-08-04T22:34:24.244Z,8.70
2018-08-04T22:39:31.082Z,9.63
2018-08-04T22:44:44.415Z,8.80
2018-08-04T22:49:50.189Z,9.83
2018-08-04T22:54:56.301Z,9.20
2018-08-04T23:00:00.984Z,8.67
2018-08-04T23:05:07.830Z,9.50
2018-08-04T23:10:12.159Z,10.10
2018-08-04T23:15:17.416Z,8.17
2018-08-04T23:20:22.599Z,10.10
2018-08-04T23:25:26.943Z,10.10
2018-08-04T23:30:34.432Z,8.93
2018-08-04T23:35:38.865Z,9.17
2018-08-04T23:40:51.298Z,8.23
2018-08-04T23:45:57.888Z,8.43
2018-08-04T23:51:06.728Z,8.37
2018-08-04T23:56:15.273Z,8.70
